Manson, North Carolina
Current Conditions -  °F | °C
As of 4:35 PM on Wednesday 17 Dec 2014 (Local Time) from KHNZ Reporting Station
Clear Clear  
Wind Chill: 54°   Ceiling: Unl
Heat Index: 54°   Visibility: 10mi
Dew Point: 33°   Wind: 0mph
Humidity: 45%   Direction: NA
Pressure: 30.02"   Gusts: NA
Location:  36.42°N, 78.28°W
Report Text: KHNZ 172135Z AUTO 00000KT 10SM CLR 12/01 A3002 RMK AO2 T01210005
Loading
Personal Weather Stations






























Interactive Weather Map New forecast layout! Learn more

10-Day Weather Forecast

Advertisements
Track Severe Weather on mobile